createdAt,value
2023-03-18T00:00:23.080Z,60.09
2023-03-18T00:02:49.934Z,60.67
2023-03-18T00:05:16.804Z,60.71
2023-03-18T00:07:44.956Z,60.99
2023-03-18T00:10:12.718Z,60.82
2023-03-18T00:12:40.583Z,61.01
2023-03-18T00:15:09.481Z,60.64
2023-03-18T00:17:36.224Z,60.81
2023-03-18T00:20:03.136Z,61.26
2023-03-18T00:22:29.791Z,61.37
2023-03-18T00:24:58.016Z,61.37
2023-03-18T00:27:24.933Z,61.33
2023-03-18T00:29:51.785Z,61.83
2023-03-18T00:32:18.445Z,61.11
2023-03-18T00:34:45.165Z,62.09
2023-03-18T00:37:12.110Z,61.97
2023-03-18T00:39:39.129Z,61.20
2023-03-18T00:42:07.847Z,60.77
2023-03-18T00:44:34.494Z,61.41
2023-03-18T00:47:01.549Z,61.31
2023-03-18T00:49:28.365Z,61.55
2023-03-18T00:51:55.070Z,61.85
2023-03-18T00:54:21.971Z,61.68
2023-03-18T00:56:48.802Z,62.16
2023-03-18T00:59:17.688Z,63.09
2023-03-18T01:01:44.709Z,63.10
2023-03-18T01:04:11.380Z,63.39
2023-03-18T01:06:38.332Z,63.16
2023-03-18T01:09:07.556Z,63.15
2023-03-18T01:11:34.702Z,62.88
2023-03-18T01:14:02.124Z,62.23
2023-03-18T01:16:30.686Z,63.55
2023-03-18T01:18:57.798Z,63.89
2023-03-18T01:21:24.453Z,64.00
2023-03-18T01:23:51.452Z,63.64
2023-03-18T01:29:50.417Z,63.07
2023-03-18T01:32:19.304Z,63.08
2023-03-18T01:34:46.469Z,63.72
2023-03-18T01:37:13.103Z,63.53
2023-03-18T01:39:39.838Z,63.08
2023-03-18T01:42:07.001Z,63.96
2023-03-18T01:44:33.627Z,63.42
2023-03-18T01:47:00.376Z,63.54
2023-03-18T01:49:34.027Z,63.64
2023-03-18T01:52:04.925Z,63.60
2023-03-18T01:54:36.043Z,63.58
2023-03-18T01:57:03.484Z,64.08
2023-03-18T01:59:34.116Z,63.81
2023-03-18T02:02:04.413Z,63.80
2023-03-18T02:04:38.089Z,63.72
2023-03-18T02:07:05.738Z,64.15
2023-03-18T02:09:32.646Z,64.02
2023-03-18T02:12:01.774Z,64.44
2023-03-18T02:14:28.542Z,63.86
2023-03-18T02:17:00.911Z,64.11
2023-03-18T02:19:45.208Z,65.17
2023-03-18T02:22:26.386Z,65.06
2023-03-18T02:25:06.922Z,65.58
2023-03-18T02:27:37.312Z,66.15
2023-03-18T02:30:10.182Z,66.68
2023-03-18T02:32:38.379Z,66.87
2023-03-18T02:35:10.161Z,67.51
2023-03-18T02:37:36.817Z,67.01
2023-03-18T02:40:15.770Z,66.78
2023-03-18T02:42:47.809Z,66.77
2023-03-18T02:45:30.627Z,66.45
2023-03-18T02:51:25.768Z,67.20
2023-03-18T02:53:55.482Z,67.76
2023-03-18T02:56:22.075Z,69.34
2023-03-18T02:58:51.703Z,69.17
2023-03-18T03:01:19.109Z,68.89
2023-03-18T03:03:45.850Z,68.59
2023-03-18T03:06:12.776Z,69.12
2023-03-18T03:08:39.433Z,68.68
2023-03-18T03:11:06.372Z,69.31
2023-03-18T03:13:33.118Z,68.84
2023-03-18T03:16:01.171Z,69.61
2023-03-18T03:18:27.929Z,69.29
2023-03-18T03:20:54.530Z,69.40
2023-03-18T03:23:21.215Z,69.62
2023-03-18T03:25:47.823Z,69.86
2023-03-18T03:28:15.312Z,70.51
2023-03-18T03:30:42.332Z,70.33
2023-03-18T03:33:10.315Z,71.10
2023-03-18T03:35:38.087Z,70.75
2023-03-18T03:38:05.292Z,70.82
2023-03-18T03:40:32.155Z,70.47
2023-03-18T03:42:59.181Z,71.64
2023-03-18T03:45:26.189Z,71.07
2023-03-18T03:47:53.044Z,70.98
2023-03-18T03:50:21.496Z,71.10
2023-03-18T03:52:48.169Z,70.84
2023-03-18T03:55:16.892Z,71.27
2023-03-18T03:57:43.805Z,71.36
2023-03-18T04:00:13.323Z,71.82
2023-03-18T04:02:40.688Z,71.68
2023-03-18T04:05:12.117Z,71.68
2023-03-18T04:07:41.021Z,71.64
2023-03-18T04:10:09.019Z,71.21
2023-03-18T04:12:35.728Z,70.73
2023-03-18T04:15:02.475Z,70.74
2023-03-18T04:17:29.117Z,70.67
2023-03-18T04:19:55.955Z,70.22
2023-03-18T04:22:22.697Z,70.38
2023-03-18T04:24:50.738Z,70.08
2023-03-18T04:27:17.307Z,70.06
2023-03-18T04:29:44.150Z,70.47
2023-03-18T04:32:11.216Z,70.14
2023-03-18T04:35:30.815Z,69.47
2023-03-18T04:37:57.937Z,69.26
2023-03-18T04:40:26.107Z,69.24
2023-03-18T04:42:52.808Z,69.75
2023-03-18T04:45:19.428Z,69.18
2023-03-18T04:47:46.377Z,69.12
2023-03-18T04:50:14.133Z,69.39
2023-03-18T04:52:41.873Z,69.28
2023-03-18T04:55:09.043Z,69.29
2023-03-18T04:57:37.243Z,69.92
2023-03-18T05:00:05.693Z,70.60
2023-03-18T05:02:32.364Z,71.34
2023-03-18T05:04:59.281Z,70.39
2023-03-18T05:07:26.054Z,70.57
2023-03-18T05:09:52.592Z,71.06
2023-03-18T05:12:19.237Z,70.16
2023-03-18T05:14:47.235Z,69.57
2023-03-18T05:17:14.653Z,69.63
2023-03-18T05:19:42.940Z,68.61
2023-03-18T05:22:09.562Z,68.72
2023-03-18T05:24:36.135Z,68.12
2023-03-18T05:27:02.814Z,68.24
2023-03-18T05:29:29.435Z,68.34
2023-03-18T05:31:57.497Z,68.40
2023-03-18T05:34:24.131Z,68.17
2023-03-18T05:36:50.788Z,67.91
2023-03-18T05:39:17.375Z,68.08
2023-03-18T05:41:43.962Z,67.94
2023-03-18T05:44:10.606Z,67.78
2023-03-18T05:46:37.173Z,67.24
2023-03-18T05:49:05.216Z,67.25
2023-03-18T05:51:31.791Z,67.02
2023-03-18T05:53:58.688Z,66.37
2023-03-18T05:56:25.551Z,66.54
2023-03-18T05:58:52.443Z,66.62
2023-03-18T06:01:19.104Z,66.41
2023-03-18T06:03:45.794Z,66.45
2023-03-18T06:06:13.914Z,66.06
2023-03-18T06:08:40.574Z,65.88
2023-03-18T06:11:07.166Z,65.92
2023-03-18T06:13:34.005Z,65.78
2023-03-18T06:16:00.723Z,65.93
2023-03-18T06:18:30.395Z,65.45
2023-03-18T06:20:57.447Z,65.60
2023-03-18T06:23:25.428Z,65.16
2023-03-18T06:25:52.216Z,64.08
2023-03-18T06:28:18.835Z,63.52
2023-03-18T06:30:45.500Z,63.14
2023-03-18T06:33:12.455Z,63.06
2023-03-18T06:35:39.079Z,62.75
2023-03-18T06:38:05.659Z,62.82
2023-03-18T06:40:33.659Z,62.90
2023-03-18T06:43:00.200Z,62.19
2023-03-18T06:45:30.491Z,61.99
2023-03-18T06:47:57.185Z,61.69
2023-03-18T06:50:25.150Z,62.25
2023-03-18T06:52:52.324Z,61.64
2023-03-18T06:55:19.090Z,61.47
2023-03-18T06:57:47.897Z,61.40
2023-03-18T07:00:16.303Z,61.71
2023-03-18T07:02:43.959Z,61.00
2023-03-18T07:05:11.086Z,60.65
2023-03-18T07:07:40.207Z,60.71
2023-03-18T07:10:18.436Z,60.25
2023-03-18T07:12:45.226Z,60.26
2023-03-18T07:15:13.599Z,59.43
2023-03-18T07:17:40.249Z,58.47
2023-03-18T07:20:10.719Z,56.96
2023-03-18T07:22:37.337Z,56.56
2023-03-18T07:25:04.685Z,56.01
2023-03-18T07:27:31.409Z,54.64
2023-03-18T07:29:58.300Z,53.87
2023-03-18T07:32:26.400Z,53.14
2023-03-18T07:34:53.397Z,52.05
2023-03-18T07:37:20.332Z,51.31
2023-03-18T07:39:47.013Z,50.76
2023-03-18T07:42:13.709Z,49.81
2023-03-18T07:44:40.361Z,49.73
2023-03-18T07:47:07.182Z,49.12
2023-03-18T07:49:35.174Z,47.96
2023-03-18T07:52:01.771Z,47.99
2023-03-18T07:54:28.403Z,47.24
2023-03-18T07:56:55.438Z,46.51
2023-03-18T07:59:22.232Z,46.02
2023-03-18T08:01:49.086Z,46.15
2023-03-18T08:04:15.942Z,45.88
2023-03-18T08:06:44.024Z,46.81
2023-03-18T08:09:10.950Z,47.50
2023-03-18T08:11:37.556Z,46.80
2023-03-18T08:14:06.116Z,46.92
2023-03-18T08:16:38.071Z,47.14
2023-03-18T08:19:04.874Z,46.23
2023-03-18T08:21:40.498Z,45.93
2023-03-18T08:24:08.854Z,46.21
2023-03-18T08:26:35.881Z,45.59
2023-03-18T08:29:02.562Z,45.17
2023-03-18T08:31:29.946Z,45.08
2023-03-18T08:33:57.698Z,45.62
2023-03-18T08:36:24.347Z,45.27
2023-03-18T08:38:53.268Z,44.67
2023-03-18T08:41:24.356Z,44.24
2023-03-18T08:43:51.296Z,44.34
2023-03-18T09:09:43.154Z,44.84
2023-03-18T09:12:10.992Z,45.13
2023-03-18T09:14:37.626Z,45.08
2023-03-18T09:17:04.500Z,44.45
2023-03-18T09:19:31.133Z,44.22
2023-03-18T09:21:57.720Z,44.48
2023-03-18T09:24:24.529Z,44.69
2023-03-18T09:26:52.475Z,44.84
2023-03-18T09:29:19.115Z,44.65
2023-03-18T09:31:45.639Z,45.18
2023-03-18T09:34:12.377Z,45.23
2023-03-18T09:36:38.952Z,44.67
2023-03-18T09:39:05.656Z,44.38
2023-03-18T09:41:48.832Z,44.41
2023-03-18T09:44:23.027Z,43.80
2023-03-18T09:47:13.289Z,43.03
2023-03-18T09:49:59.734Z,42.84
2023-03-18T09:52:31.542Z,42.13
2023-03-18T09:55:03.517Z,42.14
2023-03-18T09:57:33.635Z,42.44
2023-03-18T10:00:05.875Z,41.96
2023-03-18T10:02:40.327Z,43.64
2023-03-18T10:05:14.736Z,42.57
2023-03-18T10:07:43.493Z,42.89
2023-03-18T10:10:19.828Z,43.77
2023-03-18T10:13:01.469Z,43.70
2023-03-18T10:15:44.266Z,43.67
2023-03-18T10:18:13.637Z,43.10
2023-03-18T10:20:52.388Z,43.39
2023-03-18T10:23:32.845Z,42.69
2023-03-18T10:26:05.876Z,43.09
2023-03-18T10:28:42.581Z,43.63
2023-03-18T10:31:26.407Z,44.38
2023-03-18T10:33:58.266Z,43.88
2023-03-18T10:36:31.886Z,43.95
2023-03-18T10:39:02.163Z,43.64
2023-03-18T10:41:32.116Z,43.94
2023-03-18T10:44:02.627Z,44.30
2023-03-18T10:46:33.625Z,43.25
2023-03-18T10:49:05.744Z,43.54
2023-03-18T10:54:24.831Z,43.47
2023-03-18T10:56:51.466Z,43.26
2023-03-18T10:59:20.295Z,43.70
2023-03-18T11:01:53.147Z,44.13
2023-03-18T11:04:21.157Z,43.81
2023-03-18T11:06:51.531Z,43.49
2023-03-18T11:09:20.329Z,43.01
2023-03-18T11:11:48.470Z,43.10
2023-03-18T11:14:16.634Z,43.34
2023-03-18T11:16:48.641Z,43.64
2023-03-18T11:19:28.619Z,42.54
2023-03-18T11:22:04.313Z,42.12
2023-03-18T11:24:31.394Z,42.87
2023-03-18T11:26:58.104Z,42.65
2023-03-18T11:29:27.679Z,42.67
2023-03-18T11:31:57.293Z,43.04
2023-03-18T11:34:25.196Z,42.33
2023-03-18T11:36:57.380Z,42.35
2023-03-18T11:39:25.494Z,42.05
2023-03-18T11:41:52.432Z,41.83
2023-03-18T11:44:24.487Z,41.41
2023-03-18T11:47:00.079Z,40.55
2023-03-18T11:49:28.415Z,39.78
2023-03-18T11:52:05.372Z,40.37
2023-03-18T11:55:01.409Z,40.45
2023-03-18T11:57:36.473Z,39.87
2023-03-18T12:00:18.395Z,41.12
2023-03-18T12:03:15.620Z,39.38
2023-03-18T12:06:04.243Z,39.08
2023-03-18T12:08:42.098Z,38.33
2023-03-18T12:11:13.564Z,37.10
2023-03-18T12:13:52.764Z,36.64
2023-03-18T12:16:30.306Z,37.36
2023-03-18T12:19:13.543Z,37.54
2023-03-18T12:21:55.177Z,38.23
2023-03-18T12:24:43.598Z,38.11
2023-03-18T12:27:16.469Z,38.08
2023-03-18T12:29:58.321Z,37.58
2023-03-18T12:32:29.856Z,37.47
2023-03-18T12:35:20.851Z,37.76
2023-03-18T12:38:03.563Z,38.25
2023-03-18T12:40:42.207Z,37.83
2023-03-18T12:43:41.470Z,36.86
2023-03-18T12:46:22.859Z,36.94
2023-03-18T12:48:54.984Z,37.29
2023-03-18T12:51:33.304Z,37.11
2023-03-18T12:54:08.014Z,36.77
2023-03-18T12:56:40.344Z,37.49
2023-03-18T12:59:09.279Z,37.58
2023-03-18T13:01:41.318Z,38.75
2023-03-18T13:04:13.379Z,37.59
2023-03-18T13:06:45.899Z,36.88
2023-03-18T13:09:25.492Z,36.14
2023-03-18T13:12:01.645Z,34.94
2023-03-18T13:14:38.947Z,34.63
2023-03-18T13:17:11.491Z,34.61
2023-03-18T13:19:40.788Z,35.58
2023-03-18T13:22:25.167Z,36.14
2023-03-18T13:25:03.050Z,36.55
2023-03-18T13:27:43.288Z,36.98
2023-03-18T13:30:21.440Z,37.28
2023-03-18T13:33:11.056Z,37.04
2023-03-18T13:36:21.940Z,37.17
2023-03-18T13:39:16.778Z,37.70
2023-03-18T13:42:11.250Z,37.24
2023-03-18T13:44:43.608Z,37.14
2023-03-18T13:47:16.378Z,37.54
2023-03-18T13:49:43.384Z,36.71
2023-03-18T13:52:24.296Z,37.75
2023-03-18T13:54:52.748Z,38.44
2023-03-18T13:57:34.487Z,39.39
2023-03-18T14:00:25.456Z,41.25
2023-03-18T14:03:06.728Z,42.14
2023-03-18T14:05:36.131Z,42.95
2023-03-18T14:08:26.236Z,42.34
2023-03-18T14:11:27.180Z,41.06
2023-03-18T14:13:57.960Z,40.34
2023-03-18T14:16:28.835Z,41.04
2023-03-18T14:19:00.879Z,41.51
2023-03-18T14:21:29.149Z,41.19
2023-03-18T14:24:13.362Z,40.66
2023-03-18T14:26:40.391Z,42.00
2023-03-18T14:29:24.603Z,43.81
2023-03-18T14:31:56.733Z,44.31
2023-03-18T14:34:25.625Z,44.50
2023-03-18T14:37:18.973Z,44.73
2023-03-18T14:39:49.206Z,45.50
2023-03-18T14:42:27.863Z,45.05
2023-03-18T14:45:03.607Z,44.83
2023-03-18T14:47:41.525Z,45.01
2023-03-18T14:50:16.633Z,44.34
2023-03-18T14:52:48.669Z,45.46
2023-03-18T14:55:20.284Z,46.30
2023-03-18T14:57:46.946Z,46.71
2023-03-18T15:00:18.040Z,46.18
2023-03-18T15:02:45.658Z,45.16
2023-03-18T15:05:17.680Z,45.32
2023-03-18T15:07:49.877Z,44.88
2023-03-18T15:10:22.348Z,45.74
2023-03-18T15:12:57.324Z,45.82
2023-03-18T15:15:25.321Z,45.29
2023-03-18T15:17:51.953Z,45.34
2023-03-18T15:20:20.400Z,45.24
2023-03-18T15:22:47.174Z,45.30
2023-03-18T15:25:18.609Z,44.42
2023-03-18T15:27:45.271Z,44.89
2023-03-18T15:30:28.422Z,45.37
2023-03-18T15:33:07.606Z,46.22
2023-03-18T15:35:35.376Z,46.69
2023-03-18T15:38:06.830Z,47.28
2023-03-18T15:40:34.465Z,47.72
2023-03-18T15:43:05.960Z,48.18
2023-03-18T15:45:34.274Z,48.29
2023-03-18T15:48:06.388Z,48.70
2023-03-18T15:50:33.002Z,49.13
2023-03-18T15:53:05.823Z,50.10
2023-03-18T15:55:35.493Z,50.42
2023-03-18T15:58:05.058Z,50.16
2023-03-18T16:00:34.164Z,49.72
2023-03-18T16:03:00.784Z,49.86
2023-03-18T16:05:28.347Z,50.50
2023-03-18T16:07:55.453Z,50.13
2023-03-18T16:10:23.384Z,49.73
2023-03-18T16:12:53.932Z,49.43
2023-03-18T16:15:23.361Z,49.81
2023-03-18T16:17:53.005Z,49.92
2023-03-18T16:20:21.913Z,50.56
2023-03-18T16:22:50.524Z,51.07
2023-03-18T16:25:17.802Z,51.74
2023-03-18T16:27:46.856Z,51.84
2023-03-18T16:30:18.444Z,51.68
2023-03-18T16:32:48.410Z,51.94
2023-03-18T16:35:18.372Z,51.77
2023-03-18T16:37:47.219Z,52.23
2023-03-18T16:40:15.480Z,52.16
2023-03-18T16:42:42.202Z,51.97
2023-03-18T16:45:14.144Z,52.24
2023-03-18T16:47:42.812Z,51.75
2023-03-18T16:50:17.090Z,51.61
2023-03-18T16:52:43.893Z,52.15
2023-03-18T16:55:12.881Z,52.09
2023-03-18T16:57:40.261Z,52.69
2023-03-18T17:00:18.426Z,53.26
2023-03-18T17:02:45.507Z,53.29
2023-03-18T17:05:16.467Z,53.82
2023-03-18T17:07:43.241Z,53.89
2023-03-18T17:10:11.336Z,53.60
2023-03-18T17:12:39.402Z,54.56
2023-03-18T17:15:08.211Z,54.59
2023-03-18T17:17:35.771Z,54.92
2023-03-18T17:20:04.189Z,55.32
2023-03-18T17:22:33.174Z,54.99
2023-03-18T17:25:00.522Z,54.72
2023-03-18T17:27:32.890Z,54.45
2023-03-18T17:29:59.932Z,54.24
2023-03-18T17:32:26.555Z,53.95
2023-03-18T17:34:54.403Z,53.35
2023-03-18T17:37:21.282Z,53.32
2023-03-18T17:39:49.199Z,53.85
2023-03-18T17:42:28.149Z,53.22
2023-03-18T17:44:55.274Z,52.99
2023-03-18T17:47:22.219Z,53.15
2023-03-18T17:49:48.756Z,53.21
2023-03-18T17:52:18.901Z,52.83
2023-03-18T17:54:45.763Z,53.29
2023-03-18T17:57:14.970Z,54.06
2023-03-18T17:59:41.594Z,53.31
2023-03-18T18:02:13.928Z,53.43
2023-03-18T18:04:40.594Z,53.53
2023-03-18T18:07:16.341Z,53.26
2023-03-18T18:09:43.155Z,53.32
2023-03-18T18:12:16.360Z,53.23
2023-03-18T18:14:42.892Z,53.73
2023-03-18T18:17:13.612Z,53.50
2023-03-18T18:19:40.192Z,53.45
2023-03-18T18:22:15.189Z,53.47
2023-03-18T18:24:42.377Z,53.08
2023-03-18T18:27:10.654Z,53.31
2023-03-18T18:29:39.131Z,53.37
2023-03-18T18:32:08.423Z,53.21
2023-03-18T18:34:35.389Z,53.28
2023-03-18T18:37:02.629Z,53.55
2023-03-18T18:39:29.400Z,53.03
2023-03-18T18:42:06.231Z,53.09
2023-03-18T18:44:42.707Z,53.45
2023-03-18T18:47:18.614Z,53.88
2023-03-18T18:49:45.873Z,53.53
2023-03-18T18:52:14.368Z,54.09
2023-03-18T18:54:47.162Z,54.29
2023-03-18T19:00:55.012Z,53.92
2023-03-18T19:16:56.274Z,54.39
2023-03-18T19:20:11.942Z,54.73
2023-03-18T19:22:42.980Z,54.16
2023-03-18T19:25:12.438Z,54.69
2023-03-18T19:27:39.056Z,54.68
2023-03-18T19:30:19.257Z,54.26
2023-03-18T19:32:47.503Z,53.97
2023-03-18T19:35:14.624Z,54.28
2023-03-18T19:37:45.533Z,54.31
2023-03-18T19:40:21.754Z,54.15
2023-03-18T19:42:48.430Z,54.50
2023-03-18T19:45:15.388Z,54.40
2023-03-18T19:47:42.415Z,54.05
2023-03-18T19:50:15.780Z,53.84
2023-03-18T19:52:42.531Z,53.86
2023-03-18T19:55:12.736Z,54.10
2023-03-18T19:57:39.799Z,54.36
2023-03-18T20:00:18.512Z,54.27
2023-03-18T20:02:45.346Z,54.82
2023-03-18T20:05:18.494Z,54.77
2023-03-18T20:07:45.409Z,55.15
2023-03-18T20:10:13.288Z,55.43
2023-03-18T20:12:44.215Z,55.14
2023-03-18T20:15:14.804Z,54.68
2023-03-18T20:17:42.531Z,55.15
2023-03-18T20:20:12.905Z,55.39
2023-03-18T20:22:56.466Z,55.04
2023-03-18T20:25:27.592Z,55.28
2023-03-18T20:27:54.581Z,55.18
2023-03-18T20:30:24.229Z,54.88
2023-03-18T20:32:50.881Z,55.03
2023-03-18T20:35:17.906Z,54.95
2023-03-18T20:37:46.425Z,55.15
2023-03-18T20:40:19.541Z,55.51
2023-03-18T20:42:46.483Z,55.25
2023-03-18T20:45:15.559Z,55.37
2023-03-18T20:47:43.001Z,55.08
2023-03-18T20:50:13.039Z,55.17
2023-03-18T20:52:41.433Z,55.15
2023-03-18T20:55:22.598Z,55.29
2023-03-18T20:57:49.863Z,55.37
2023-03-18T21:00:18.622Z,54.81
2023-03-18T21:02:46.897Z,54.96
2023-03-18T21:05:14.346Z,54.73
2023-03-18T21:07:41.338Z,55.33
2023-03-18T21:10:14.332Z,55.05
2023-03-18T21:12:42.861Z,54.98
2023-03-18T21:15:14.886Z,54.98
2023-03-18T21:17:41.458Z,54.79
2023-03-18T21:20:21.813Z,54.98
2023-03-18T21:22:50.629Z,55.11
2023-03-18T21:25:19.672Z,54.99
2023-03-18T21:27:48.010Z,55.07
2023-03-18T21:30:16.409Z,54.94
2023-03-18T21:32:43.427Z,54.96
2023-03-18T21:35:17.424Z,54.42
2023-03-18T21:37:44.428Z,54.62
2023-03-18T21:40:14.475Z,54.11
2023-03-18T21:42:41.127Z,54.17
2023-03-18T21:45:12.642Z,54.29
2023-03-18T21:47:39.504Z,54.35
2023-03-18T21:50:06.591Z,54.29
2023-03-18T21:52:35.139Z,54.61
2023-03-18T21:55:03.090Z,54.83
2023-03-18T21:57:30.399Z,54.63
2023-03-18T21:59:57.026Z,54.63
2023-03-18T22:02:29.318Z,54.37
2023-03-18T22:04:57.809Z,54.88
2023-03-18T22:07:24.763Z,54.34
2023-03-18T22:09:51.587Z,54.72
2023-03-18T22:12:22.338Z,55.03
2023-03-18T22:14:48.977Z,54.96
2023-03-18T22:17:21.024Z,55.24
2023-03-18T22:19:49.664Z,55.17
2023-03-18T22:22:19.653Z,54.65
2023-03-18T22:24:46.462Z,54.70
2023-03-18T22:27:19.093Z,54.82
2023-03-18T22:29:45.807Z,54.47
2023-03-18T22:32:23.425Z,54.82
2023-03-18T22:34:51.406Z,54.46
2023-03-18T22:37:20.210Z,55.04
2023-03-18T22:39:46.868Z,55.03
2023-03-18T22:42:15.395Z,54.92
2023-03-18T22:44:42.021Z,54.80
2023-03-18T22:47:13.871Z,54.77
2023-03-18T22:49:40.486Z,54.82
2023-03-18T22:52:14.989Z,54.66
2023-03-18T22:54:41.834Z,54.10
2023-03-18T22:57:16.423Z,53.78
2023-03-18T22:59:42.984Z,53.92
2023-03-18T23:02:15.176Z,54.22
2023-03-18T23:04:41.784Z,54.05
2023-03-18T23:07:20.658Z,53.81
2023-03-18T23:09:56.377Z,53.53
2023-03-18T23:12:25.198Z,54.01
2023-03-18T23:14:52.422Z,53.60
2023-03-18T23:17:20.764Z,53.73
2023-03-18T23:19:48.222Z,53.94
2023-03-18T23:22:21.570Z,53.84
2023-03-18T23:24:48.195Z,54.56
2023-03-18T23:27:14.811Z,54.36
2023-03-18T23:29:41.397Z,54.19
2023-03-18T23:32:08.927Z,54.31
2023-03-18T23:34:35.553Z,54.25
2023-03-18T23:37:02.252Z,54.27
2023-03-18T23:39:30.549Z,54.25
2023-03-18T23:41:57.073Z,53.84
2023-03-18T23:44:23.641Z,53.80
2023-03-18T23:46:50.379Z,53.60
2023-03-18T23:49:16.958Z,53.64
2023-03-18T23:51:43.793Z,52.87
2023-03-18T23:54:10.845Z,53.55
2023-03-18T23:56:38.816Z,53.25
2023-03-18T23:59:05.573Z,53.40
